Logo AVAMET
Benvolgut visitant, si us plau, ingressa Recuperar contrasenya

Montserrat Casadalt

Dades diàries. Acumulats / Últims 30 dies disponibles

Data Temperatura (°C) Humitat rel. (%) Pressió rel. (hPa) Vent (km/h) Precipitació
Mínima Mitjana Màxima Amplitud
tèrmica
Mínima Mitjana Màxima Mínima Mitjana Màxima Predom. Mitjana Ràfega
màxima
Total
(mm)
Índex-n
Mínima Mitjana Màxima Mínima Mitjana Màxima n
0 a 1
P0 max
mm 5'
Dades mensuals acumulades fins l'últim dia disponible
12/2019 7,5 9,3 11,1 10,9 10,4 12,9 18,5 11,0 35 85 99 1.003 1.012 1.021   8,4 46,7 78,8
Dades anuals acumulades fins l'últim dia disponible
2019 1,6 13,7 25,1 17,9 10,4 23,7 41,7 40,1 11 61 100 990 1.015 1.034   8,6 83,7 445,4
Últims 30 dies disponibles
05-12-2019 9,6     10,4     11,3 1,7 96 98 99 1.007 1.015 1.021 NE 8,5 35,4 11,8
04-12-2019 9,0     10,6     13,1 4,1 70 89 97 1.003 1.006 1.010 NE 12,1 46,7 22,2 0,38 1,60
03-12-2019 7,5     8,7     10,4 2,9 78 90 97 1.011 1.014 1.016 NE 6,1 38,6 13,8 0,43 1,70
02-12-2019 9,5     10,5     11,3 1,8 62 84 96 1.011 1.013 1.016 NE 7,9 35,4 31,0 0,42 2,30
01-12-2019 11,1     14,2     18,5 7,4 35 63 86 1.008 1.010 1.012 W 7,4 40,2 0,0
30-11-2019 13,0     16,3     21,8 8,8 43 64 77 1.012 1.016 1.019 ONO 12,7 43,5 0,0
29-11-2019 13,5     15,9     21,4 7,9 49 63 72 1.014 1.017 1.019 W 15,0 48,3 0,0
28-11-2019 12,0     14,1     17,6 5,6 50 61 67 1.011 1.014 1.016 W 18,7 54,7 0,0
27-11-2019 14,0     16,3     20,1 6,1 43 59 68 1.006 1.009 1.011 N 18,0 56,3 0,0
26-11-2019 13,3     16,4     21,3 8,0 45 64 75 1.007 1.010 1.013 W 16,1 56,3 0,0
25-11-2019 10,9     14,7     20,2 9,3 45 65 75 1.010 1.012 1.013 W 18,3 59,5 0,0
24-11-2019 8,2     12,1     17,3 9,1 34 52 64 1.005 1.009 1.012 W 20,6 56,3 0,0
23-11-2019 9,6     12,6     16,7 7,1 33 55 81 990 996 1.005 WNW 26,9 75,6 0,4
22-11-2019 9,6     12,7     16,9 7,3 58 76 88 992 1.000 1.007 W 7,7 41,8 1,6
21-11-2019 7,9     11,4     14,9 7,0 57 69 80 1.006 1.007 1.009 W 5,8 30,6 0,0
20-11-2019 6,4     10,9     16,9 10,5 35 57 73 1.008 1.010 1.013 W 6,4 25,7 0,2
19-11-2019 4,4     9,8     16,7 12,3 27 50 66 1.012 1.014 1.016 W 4,5 29,0 0,0
18-11-2019 7,1     10,5     16,1 9,0 33 55 80 1.006 1.009 1.015 N 2,7 29,0 0,0
17-11-2019 4,9     9,4     14,8 9,9 42 59 74 1.008 1.011 1.013 W 10,8 56,3 0,2
16-11-2019 5,0     9,8     16,4 11,4 23 51 71 1.005 1.010 1.013 W 3,7 35,4 0,0
15-11-2019 7,2     10,3     16,1 8,9 36 55 70 998 1.001 1.005 N 7,4 53,1 0,0
14-11-2019 9,1     12,4     16,3 7,2 45 59 74 997 1.001 1.008 W 10,0 57,9 0,0
13-11-2019 11,4     13,9     19,2 7,8 38 67 89 1.003 1.006 1.009 W 5,8 54,7 5,8 0,86 2,00
12-11-2019 8,9     13,4     19,7 10,8 27 40 58 1.008 1.010 1.012 W 4,5 46,7 0,0
11-11-2019 7,4     12,1     17,8 10,4 27 46 56 1.009 1.011 1.013 W 7,6 43,5 0,0
10-11-2019 8,4     12,1     16,9 8,5 27 46 70 1.009 1.011 1.013 N 8,0 51,5 0,0
09-11-2019 9,2     13,3     18,5 9,3 29 44 66 1.011 1.015 1.017 WNW 14,5 57,9 0,0
08-11-2019 8,3     11,8     16,4 8,1 31 46 62 1.007 1.011 1.015 WNW 19,2 56,3 0,0
07-11-2019 10,8     14,7     22,1 11,3 22 50 69 1.005 1.008 1.011 W 14,6 53,1 0,0
06-11-2019 10,6     15,1     21,8 11,2 25 46 66 1.010 1.011 1.012 W 13,2 45,1 0,0
Últims 13 mesos disponibles
11/2019 4,4 10,4 18,7 14,0 14,8 19,1 28,6 24,2 40 56 76 996 1.009 1.017 W 13,1 78,9 8,2
10/2019 9,9 15,2 18,9 19,2 14,3 25,2 34,6 24,7 36 65 87 1.006 1.014 1.020 W 6,3 54,7 28,4
09/2019 13,8 18,9 21,9 22,5 19,2 27,4 33,6 19,8 30 70 87 1.008 1.015 1.023 W 7,1 69,2 90,8
08/2019 16,9 21,1 25,1 25,6 26,3 31,6 41,7 24,8 34 65 79 1.008 1.013 1.018 ESE 7,4 51,5 10,6
07/2019 19,9 21,4 23,4 26,0 27,0 31,8 37,6 17,7 39 61 77 1.003 1.012 1.019 SE 6,8 54,7 9,4
06/2019 12,5 17,1 23,2 22,1 22,2 28,1 36,9 24,4 32 58 76 1.006 1.013 1.020 ESE 7,5 66,0 0,0
05/2019 8,2 13,4 18,4 17,9 18,0 23,5 31,8 23,6 45 63 87 1.003 1.013 1.022 N 7,2 61,2 14,0
04/2019 6,7 10,2 12,8 14,1 13,4 19,8 29,8 23,1 33 65 99 998 1.011 1.023 W 10,5 67,6 175,8
03/2019 6,4 9,6 13,7 14,1 10,9 20,5 29,1 22,7 31 52 91 1.008 1.021 1.028 N 8,0 66,0 28,2
02/2019 3,4 7,3 12,1 11,6 12,3 18,2 26,8 23,4 32 59 78 993 1.023 1.032 W 8,3 83,7 1,0
01/2019 1,6 6,3 10,4 10,4 12,0 16,4 21,4 19,8 35 52 71 1.000 1.017 1.029 W 11,9 80,5 0,2
12/2018 6,1 8,7 12,5 12,3 13,3 17,8 22,9 16,8 37 64 84 1.007 1.023 1.029 W 11,5 64,4 11,2
11/2018 6,2 10,3 14,4 13,2 12,3 17,3 23,9 17,7 46 73 99 1.000 1.014 1.022 W 10,8 70,8 182,4
Tots els anys disponibles
2018 1,1 13,5 25,3 17,4 7,4 22,8 38,0 36,9 37 70 99 998 1.016 1.029 W 10,2 86,9 734,0
2017 -0,7 13,5 25,3 17,6 6,6 23,1 38,0 38,7 9,1 85,3 336,2
2016 1,8 13,8 27,1 17,7 9,6 22,9 39,6 37,8 9,8 83,7 541,0
2015 0,7 13,6 21,1 17,6 21,0 22,9 41,8 41,1 6,2 83,7 468,4
2014 1,3 13,8 23,5 17,8 8,8 23,2 41,1 39,8 7,6 82,1 324,0
2013 1,2 12,9 16,8 16,8 18,7 22,2 36,1 34,9 8,4 78,9 337,8
2012 -2,3 13,0 18,1 17,1 21,4 22,5 37,2 39,5 7,2 82,1 431,2
2011 -1,1 13,5 22,8 17,1 6,6 22,2 39,0 40,1 8,4 83,7 426,0
2010 -1,8 12,4 26,2 16,3 3,7 21,4 42,0 43,8 9,2 109,4 559,4
2009 -2,2 13,2 23,7 17,1 4,6 22,5 41,7 43,9 9,7 99,8 807,4
2008 1,6 12,5 17,1 21,7 37,0 35,4 10,6 74,0 733,8
2007 2,1 13,0 17,4 21,7 37,6 35,5 42 67 88 1.027 1.027 1.027 2,3 37,0 698,8
2006 -3,2 13,4 17,8 22,2 35,6 38,8 48 70 97 3,1 45,0 531,7
2005 -4,9 12,1 16,6 21,1 36,5 41,4 357,2
Temperatura (°C)
Humitat relativa (%)
Velocitat del vent i ràfega màxima (km/h)
Direcció del vent (°)
Pressió (hPa)
Precipitació (mm)
Nota sobre les dades: s'avisa a l'usuari de la provisionalitat i no oficialitat d'aquestes dades
Logo AVAMET blanc
Web allotjada a Sollutia
Llicència de Creative CommonsLa web d'AVAMET i els seus continguts estan subjectes a una llicència de
Reconeixement - No Comercial - Compartir igual
Últimes estacions: Aielo de Malferit - Centre (Soci), Faura (Inforatge), Benifairó de les Valls (Inforatge), Xàbia - Les Valls (Soci), Xàbia - Alt de la Granadella (Soci), Villena - Sierra de Salinas (Soci), Sueca - Centre (Inforatge) - - -